Orbital elements of FENGYUN 1C DEB
| Launched | 9 May 1999 |
| Flight ended | – |
| Launch site | Taiyuan Space Center, PRC |
| Owner | People's Republic of China |
| NORAD ID | 30363 |
| Date fetched |
Epoch osculation |
Inc. [°] |
Ecc. | RA asc node [hr] |
Arg Peri. [°] |
Mean anom [°] |
Mean motion [rev/day] |
Abs. mag |
| Date fetched |
Epoch osculation |
Inc. [°] |
Ecc. | RA asc node [hr] |
Arg Peri. [°] |
Mean anom [°] |
Mean motion [rev/day] |
Abs. mag |
| 2026 May 05 17:57 | 2026 May 02 03:53:26 | 99.0175 | 0.00768 | 13.3626 | 0.3331 | 359.7882 | 14.17760 | – |
| 2026 May 04 17:57 | 2026 Apr 30 04:27:56 | 99.0178 | 0.00771 | 13.2288 | 6.1013 | 359.7882 | 14.17760 | – |
| 2026 May 03 17:57 | 2026 Apr 30 04:27:56 | 99.0178 | 0.00771 | 13.2288 | 6.1013 | 359.7882 | 14.17760 | – |
| 2026 May 02 17:57 | 2026 Apr 30 04:27:56 | 99.0178 | 0.00771 | 13.2288 | 6.1013 | 359.7882 | 14.17760 | – |
| 2026 May 01 17:56 | 2026 Apr 30 04:27:56 | 99.0178 | 0.00771 | 13.2288 | 6.1013 | 359.7882 | 14.17760 | – |
| 2026 Apr 30 17:56 | 2026 Apr 30 04:27:56 | 99.0178 | 0.00771 | 13.2288 | 6.1013 | 359.7882 | 14.17760 | – |
| 2026 Apr 29 17:57 | 2026 Apr 21 03:39:44 | 99.0182 | 0.00780 | 12.6174 | 32.1751 | 359.7882 | 14.17760 | – |
| 2026 Apr 28 17:56 | 2026 Apr 21 03:39:44 | 99.0182 | 0.00780 | 12.6174 | 32.1751 | 359.7882 | 14.17760 | – |
| 2026 Apr 27 17:58 | 2026 Apr 21 03:39:44 | 99.0182 | 0.00780 | 12.6174 | 32.1751 | 359.7882 | 14.17760 | – |
| 2026 Apr 26 17:58 | 2026 Apr 21 03:39:44 | 99.0182 | 0.00780 | 12.6174 | 32.1751 | 359.7882 | 14.17760 | – |
| 2026 Apr 25 17:58 | 2026 Apr 21 03:39:44 | 99.0182 | 0.00780 | 12.6174 | 32.1751 | 359.7882 | 14.17760 | – |
| 2026 Apr 24 17:59 | 2026 Apr 21 03:39:44 | 99.0182 | 0.00780 | 12.6174 | 32.1751 | 359.7882 | 14.17760 | – |
| 2026 Apr 23 17:57 | 2026 Apr 19 04:14:08 | 99.0178 | 0.00782 | 12.4837 | 37.8662 | 359.7882 | 14.17760 | – |
| 2026 Apr 22 17:57 | 2026 Apr 19 04:14:08 | 99.0178 | 0.00782 | 12.4837 | 37.8662 | 359.7882 | 14.17760 | – |
| 2026 Apr 21 17:57 | 2026 Apr 19 04:14:08 | 99.0178 | 0.00782 | 12.4837 | 37.8662 | 359.7882 | 14.17760 | – |
| 2026 Apr 20 17:57 | 2026 Apr 19 04:14:08 | 99.0178 | 0.00782 | 12.4837 | 37.8662 | 359.7882 | 14.17760 | – |
| 2026 Apr 19 17:58 | 2026 Apr 19 04:14:08 | 99.0178 | 0.00782 | 12.4837 | 37.8662 | 359.7882 | 14.17760 | – |
| 2026 Apr 18 17:56 | 2026 Apr 11 11:36:30 | 99.0179 | 0.00792 | 11.9630 | 59.8346 | 359.7882 | 14.17760 | – |
| 2026 Apr 16 17:57 | 2026 Apr 11 11:36:30 | 99.0179 | 0.00792 | 11.9630 | 59.8346 | 359.7882 | 14.17760 | – |
| 2026 Apr 14 17:57 | 2026 Apr 11 11:36:30 | 99.0179 | 0.00792 | 11.9630 | 59.8346 | 359.7882 | 14.17760 | – |
| 2026 Apr 13 17:57 | 2026 Apr 11 11:36:30 | 99.0179 | 0.00792 | 11.9630 | 59.8346 | 359.7882 | 14.17760 | – |
| 2026 Apr 12 17:57 | 2026 Apr 08 03:59:49 | 99.0178 | 0.00795 | 11.7385 | 69.2081 | 359.7882 | 14.17760 | – |
| 2026 Apr 11 17:57 | 2026 Apr 08 03:59:49 | 99.0178 | 0.00795 | 11.7385 | 69.2081 | 359.7882 | 14.17760 | – |
| 2026 Apr 10 17:58 | 2026 Apr 08 03:59:49 | 99.0178 | 0.00795 | 11.7385 | 69.2081 | 359.7882 | 14.17760 | – |
| 2026 Apr 09 18:01 | 2026 Apr 08 03:59:49 | 99.0178 | 0.00795 | 11.7385 | 69.2081 | 359.7882 | 14.17760 | – |
| 2026 Apr 08 17:57 | 2026 Apr 08 03:59:49 | 99.0178 | 0.00795 | 11.7385 | 69.2081 | 359.7882 | 14.17760 | – |